createdAt,value
2016-05-30T00:00:51.797Z,1007.15
2016-05-30T00:01:51.815Z,1007.15
2016-05-30T00:02:51.833Z,1007.18
2016-05-30T00:04:11.055Z,1007.21
2016-05-30T00:04:51.870Z,1007.2
2016-05-30T00:06:17.560Z,1007.22
2016-05-30T00:06:52.422Z,1007.23
2016-05-30T00:07:51.940Z,1007.29
2016-05-30T00:08:51.959Z,1007.32
2016-05-30T00:09:51.962Z,1007.26
2016-05-30T00:10:51.996Z,1007.21
2016-05-30T00:11:55.045Z,1007.17
2016-05-30T00:12:52.032Z,1007.15
2016-05-30T00:13:52.051Z,1007.15
2016-05-30T00:14:52.084Z,1007.17
2016-05-30T00:15:55.103Z,1007.16
2016-05-30T00:16:55.121Z,1007.15
2016-05-30T00:17:55.139Z,1007.16
2016-05-30T00:18:55.157Z,1007.1
2016-05-30T00:19:55.848Z,1007.1
2016-05-30T00:20:55.194Z,1007.07
2016-05-30T00:21:55.212Z,1007.07
2016-05-30T00:22:55.231Z,1007.06
2016-05-30T00:23:55.249Z,1007.03
2016-05-30T00:24:55.267Z,1007.04
2016-05-30T00:25:56.707Z,1007.02
2016-05-30T00:26:55.319Z,1007.01
2016-05-30T00:27:55.339Z,1006.99
2016-05-30T00:28:56.794Z,1006.98
2016-05-30T00:29:55.375Z,1006.92
2016-05-30T00:30:55.393Z,1006.95
2016-05-30T00:31:55.411Z,1006.97
2016-05-30T00:32:55.429Z,1006.94
2016-05-30T00:33:55.463Z,1006.99
2016-05-30T00:34:55.482Z,1006.97
2016-05-30T00:35:55.500Z,1006.95
2016-05-30T00:36:55.519Z,1006.92
2016-05-30T00:37:55.537Z,1006.87
2016-05-30T00:38:55.554Z,1006.85
2016-05-30T00:39:55.574Z,1006.84
2016-05-30T00:41:14.811Z,1006.84
2016-05-30T00:41:55.626Z,1006.82
2016-05-30T00:42:55.644Z,1006.8
2016-05-30T00:43:55.662Z,1006.79
2016-05-30T00:44:55.681Z,1006.78
2016-05-30T00:45:55.699Z,1006.73
2016-05-30T00:46:55.718Z,1006.74
2016-05-30T00:47:55.735Z,1006.73
2016-05-30T00:48:55.770Z,1006.71
2016-05-30T00:49:55.788Z,1006.68
2016-05-30T00:50:55.806Z,1006.66
2016-05-30T00:51:56.559Z,1006.66
2016-05-30T00:52:55.858Z,1006.62
2016-05-30T00:53:55.876Z,1006.62
2016-05-30T00:54:55.895Z,1006.65
2016-05-30T00:55:55.914Z,1006.65
2016-05-30T00:56:55.931Z,1006.63
2016-05-30T00:57:55.950Z,1006.61
2016-05-30T00:58:55.969Z,1006.62
2016-05-30T00:59:55.986Z,1006.6
2016-05-30T01:00:56.005Z,1006.59
2016-05-30T01:01:56.038Z,1006.59
2016-05-30T01:03:08.791Z,1006.56
2016-05-30T01:03:56.075Z,1006.6
2016-05-30T01:04:56.094Z,1006.62
2016-05-30T01:06:15.315Z,1006.61
2016-05-30T01:06:56.130Z,1006.64
2016-05-30T01:07:56.164Z,1006.66
2016-05-30T01:08:56.182Z,1006.65
2016-05-30T01:09:56.185Z,1006.72
2016-05-30T01:11:21.890Z,1006.65
2016-05-30T01:11:56.237Z,1006.65
2016-05-30T01:12:56.256Z,1006.7
2016-05-30T01:13:56.274Z,1006.67
2016-05-30T01:14:56.307Z,1006.72
2016-05-30T01:15:56.327Z,1006.67
2016-05-30T01:16:56.345Z,1006.6
2016-05-30T01:17:56.363Z,1006.64
2016-05-30T01:18:56.381Z,1006.63
2016-05-30T01:19:56.400Z,1006.59
2016-05-30T01:20:57.840Z,1006.59
2016-05-30T01:22:15.656Z,1006.55
2016-05-30T01:22:56.470Z,1006.54
2016-05-30T01:25:11.570Z,1006.54
2016-05-30T01:26:11.588Z,1006.6
2016-05-30T01:27:11.622Z,1006.59
2016-05-30T01:28:11.640Z,1006.57
2016-05-30T01:29:11.658Z,1006.61
2016-05-30T01:30:11.677Z,1006.58
2016-05-30T01:31:11.695Z,1006.59
2016-05-30T01:32:11.713Z,1006.6
2016-05-30T01:33:13.153Z,1006.58
2016-05-30T01:34:11.749Z,1006.52
2016-05-30T01:35:11.784Z,1006.57
2016-05-30T01:36:11.802Z,1006.61
2016-05-30T01:37:11.821Z,1006.58
2016-05-30T01:38:11.838Z,1006.56
2016-05-30T01:39:11.872Z,1006.51
2016-05-30T01:40:11.875Z,1006.5
2016-05-30T01:41:11.910Z,1006.47
2016-05-30T01:42:11.927Z,1006.46
2016-05-30T01:43:11.946Z,1006.47
2016-05-30T01:44:11.965Z,1006.42
2016-05-30T01:45:11.982Z,1006.49
2016-05-30T01:46:12.001Z,1006.51
2016-05-30T01:47:12.018Z,1006.54
2016-05-30T01:48:12.053Z,1006.5
2016-05-30T01:49:12.071Z,1006.52
2016-05-30T01:50:12.090Z,1006.5
2016-05-30T01:51:12.108Z,1006.49
2016-05-30T01:52:12.126Z,1006.51
2016-05-30T01:53:31.364Z,1006.53
2016-05-30T01:54:12.162Z,1006.51
2016-05-30T01:55:12.197Z,1006.52
2016-05-30T01:56:12.214Z,1006.52
2016-05-30T01:57:24.967Z,1006.52
2016-05-30T01:58:12.252Z,1006.53
2016-05-30T01:59:12.270Z,1006.54
2016-05-30T02:00:12.303Z,1006.54
2016-05-30T02:01:12.339Z,1006.53
2016-05-30T02:02:12.341Z,1006.53
2016-05-30T02:03:12.343Z,1006.49
2016-05-30T02:04:25.111Z,1006.49
2016-05-30T02:05:12.396Z,1006.46
2016-05-30T02:06:12.414Z,1006.49
2016-05-30T02:07:12.886Z,1006.49
2016-05-30T02:08:12.451Z,1006.44
2016-05-30T02:09:12.484Z,1006.48
2016-05-30T02:10:12.503Z,1006.46
2016-05-30T02:11:12.521Z,1006.43
2016-05-30T02:12:12.540Z,1006.44
2016-05-30T02:13:12.558Z,1006.45
2016-05-30T02:14:12.576Z,1006.45
2016-05-30T02:15:12.594Z,1006.43
2016-05-30T02:16:12.629Z,1006.43
2016-05-30T02:17:12.647Z,1006.45
2016-05-30T02:18:12.681Z,1006.41
2016-05-30T02:19:31.887Z,1006.39
2016-05-30T02:20:12.702Z,1006.39
2016-05-30T02:21:12.720Z,1006.36
2016-05-30T02:22:14.160Z,1006.37
2016-05-30T02:23:12.772Z,1006.35
2016-05-30T02:24:12.790Z,1006.37
2016-05-30T02:25:12.809Z,1006.33
2016-05-30T02:26:12.828Z,1006.35
2016-05-30T02:27:32.048Z,1006.32
2016-05-30T02:28:12.864Z,1006.3
2016-05-30T02:29:12.882Z,1006.3
2016-05-30T02:30:12.916Z,1006.37
2016-05-30T02:31:12.934Z,1006.34
2016-05-30T02:32:12.952Z,1006.3
2016-05-30T02:33:32.175Z,1006.29
2016-05-30T02:34:25.739Z,1006.3
2016-05-30T02:35:13.008Z,1006.32
2016-05-30T02:36:13.041Z,1006.34
2016-05-30T02:37:13.044Z,1006.32
2016-05-30T02:38:13.078Z,1006.33
2016-05-30T02:39:13.109Z,1006.35
2016-05-30T02:40:13.155Z,1006.36
2016-05-30T02:41:13.199Z,1006.35
2016-05-30T02:42:13.260Z,1006.36
2016-05-30T02:43:13.290Z,1006.33
2016-05-30T02:44:13.327Z,1006.32
2016-05-30T02:45:13.371Z,1006.34
2016-05-30T02:46:13.399Z,1006.37
2016-05-30T02:47:13.427Z,1006.39
2016-05-30T02:48:32.657Z,1006.39
2016-05-30T02:49:13.480Z,1006.37
2016-05-30T02:50:13.500Z,1006.39
2016-05-30T02:51:13.539Z,1006.42
2016-05-30T02:52:13.560Z,1006.37
2016-05-30T02:53:13.582Z,1006.39
2016-05-30T02:54:13.603Z,1006.38
2016-05-30T02:55:13.638Z,1006.36
2016-05-30T02:56:13.642Z,1006.32
2016-05-30T02:57:16.708Z,1006.33
2016-05-30T02:58:13.697Z,1006.31
2016-05-30T02:59:13.715Z,1006.31
2016-05-30T03:00:13.735Z,1006.31
2016-05-30T03:01:13.755Z,1006.29
2016-05-30T03:02:13.772Z,1006.27
2016-05-30T03:03:16.823Z,1006.26
2016-05-30T03:04:13.826Z,1006.25
2016-05-30T03:05:13.845Z,1006.24
2016-05-30T03:06:26.598Z,1006.21
2016-05-30T03:07:13.881Z,1006.16
2016-05-30T03:08:13.899Z,1006.14
2016-05-30T03:09:13.918Z,1006.14
2016-05-30T03:10:13.952Z,1006.15
2016-05-30T03:11:13.970Z,1006.12
2016-05-30T03:12:13.989Z,1006.09
2016-05-30T03:13:14.022Z,1006.11
2016-05-30T03:14:14.041Z,1006.09
2016-05-30T03:15:14.200Z,1006.1
2016-05-30T03:16:14.218Z,1006.06
2016-05-30T03:17:14.236Z,1006.02
2016-05-30T03:18:14.255Z,1005.96
2016-05-30T03:19:14.225Z,1005.97
2016-05-30T03:20:15.713Z,1005.93
2016-05-30T03:21:14.325Z,1005.91
2016-05-30T03:22:14.312Z,1005.88
2016-05-30T03:23:33.518Z,1005.94
2016-05-30T03:24:14.286Z,1005.97
2016-05-30T03:25:14.352Z,1005.94
2016-05-30T03:26:14.276Z,1005.97
2016-05-30T03:27:14.293Z,1005.94
2016-05-30T03:28:14.313Z,1005.95
2016-05-30T03:29:27.065Z,1005.94
2016-05-30T03:30:14.349Z,1005.95
2016-05-30T03:31:14.367Z,1005.95
2016-05-30T03:32:14.401Z,1005.98
2016-05-30T03:33:14.420Z,1005.95
2016-05-30T03:34:14.437Z,1005.96
2016-05-30T03:35:27.190Z,1006
2016-05-30T03:36:14.475Z,1005.98
2016-05-30T03:37:14.493Z,1005.94
2016-05-30T03:38:27.262Z,1006.01
2016-05-30T03:39:14.546Z,1005.99
2016-05-30T03:40:14.563Z,1006
2016-05-30T03:41:14.582Z,1006.03
2016-05-30T03:42:14.601Z,1006.02
2016-05-30T03:43:14.619Z,1006.04
2016-05-30T03:44:27.387Z,1006.03
2016-05-30T03:45:14.656Z,1006.04
2016-05-30T03:46:14.689Z,1006.01
2016-05-30T03:47:27.442Z,1005.98
2016-05-30T03:48:14.725Z,1005.94
2016-05-30T03:49:40.431Z,1005.99
2016-05-30T03:50:14.778Z,1005.95
2016-05-30T03:51:14.797Z,1005.92
2016-05-30T03:52:14.814Z,1005.94
2016-05-30T03:53:14.833Z,1005.92
2016-05-30T03:54:14.866Z,1005.96
2016-05-30T03:55:14.885Z,1005.95
2016-05-30T03:56:14.888Z,1005.92
2016-05-30T03:57:14.922Z,1005.9
2016-05-30T03:58:14.971Z,1005.91
2016-05-30T03:59:14.958Z,1005.87
2016-05-30T04:00:14.977Z,1005.89
2016-05-30T04:01:14.995Z,1005.9
2016-05-30T04:02:15.029Z,1005.91
2016-05-30T04:03:15.047Z,1005.91
2016-05-30T04:04:15.066Z,1005.95
2016-05-30T04:05:15.084Z,1005.97
2016-05-30T04:06:15.102Z,1005.97
2016-05-30T04:07:15.120Z,1005.95
2016-05-30T04:08:15.139Z,1005.99
2016-05-30T04:09:15.173Z,1006.04
2016-05-30T04:10:34.395Z,1006.05
2016-05-30T04:11:15.351Z,1006.01
2016-05-30T04:12:15.228Z,1006.04
2016-05-30T04:13:15.245Z,1005.98
2016-05-30T04:14:15.265Z,1005.99
2016-05-30T04:15:15.298Z,1005.93
2016-05-30T04:16:15.317Z,1005.98
2016-05-30T04:17:15.336Z,1005.98
2016-05-30T04:18:15.353Z,1005.98
2016-05-30T04:19:15.387Z,1005.94
2016-05-30T04:20:15.390Z,1005.93
2016-05-30T04:21:15.424Z,1005.97
2016-05-30T04:22:15.442Z,1005.98
2016-05-30T04:23:15.461Z,1006.02
2016-05-30T04:24:15.494Z,1006.02
2016-05-30T04:25:15.513Z,1006.08
2016-05-30T04:26:15.530Z,1006.05
2016-05-30T04:27:15.549Z,1006.07
2016-05-30T04:28:34.786Z,1006.1
2016-05-30T04:29:15.601Z,1006.07
2016-05-30T04:31:30.904Z,1006.03
2016-05-30T04:32:30.922Z,1006.03
2016-05-30T04:33:30.940Z,1005.97
2016-05-30T04:34:30.959Z,1005.97
2016-05-30T04:35:34.008Z,1005.92
2016-05-30T04:36:50.202Z,1006
2016-05-30T04:37:31.015Z,1006
2016-05-30T04:38:31.048Z,1006.03
2016-05-30T04:39:43.800Z,1006
2016-05-30T04:40:50.306Z,1006.01
2016-05-30T04:41:31.103Z,1006
2016-05-30T04:42:59.952Z,1005.97
2016-05-30T04:43:43.921Z,1005.9
2016-05-30T04:44:43.939Z,1005.91
2016-05-30T04:45:43.956Z,1005.89
2016-05-30T04:46:43.992Z,1005.95
2016-05-30T04:47:44.009Z,1005.87
2016-05-30T04:48:44.044Z,1005.9
2016-05-30T04:49:53.674Z,1005.85
2016-05-30T04:50:53.692Z,1005.88
2016-05-30T04:51:53.726Z,1005.87
2016-05-30T04:52:53.744Z,1005.9
2016-05-30T04:53:53.778Z,1005.96
2016-05-30T04:54:55.203Z,1006.01
2016-05-30T04:55:53.815Z,1005.95
2016-05-30T04:56:56.864Z,1005.94
2016-05-30T04:57:53.867Z,1005.97
2016-05-30T04:59:13.088Z,1005.94
2016-05-30T04:59:53.904Z,1005.91
2016-05-30T05:02:34.706Z,1005.87
2016-05-30T05:03:09.052Z,1005.89
2016-05-30T05:04:09.087Z,1005.91
2016-05-30T05:05:23.089Z,1005.95
2016-05-30T05:06:20.076Z,1005.95
2016-05-30T05:07:20.407Z,1005.95
2016-05-30T05:08:23.159Z,1005.95
2016-05-30T05:09:20.146Z,1005.99
2016-05-30T05:10:20.181Z,1006.07
2016-05-30T05:11:20.198Z,1006.04
2016-05-30T05:12:39.420Z,1006.05
2016-05-30T05:13:20.251Z,1006.04
2016-05-30T05:14:20.284Z,1006.09
2016-05-30T05:15:20.303Z,1006.06
2016-05-30T05:16:20.322Z,1006.08
2016-05-30T05:17:20.356Z,1006.09
2016-05-30T05:18:20.405Z,1006.04
2016-05-30T05:19:20.423Z,1006.01
2016-05-30T05:20:20.426Z,1006
2016-05-30T05:21:20.476Z,1005.93
2016-05-30T05:22:20.495Z,1005.9
2016-05-30T05:23:20.528Z,1005.9
2016-05-30T05:24:20.562Z,1005.86
2016-05-30T05:25:20.580Z,1005.85
2016-05-30T05:26:20.599Z,1005.9
2016-05-30T05:27:20.633Z,1005.93
2016-05-30T05:28:20.667Z,1005.91
2016-05-30T05:29:46.372Z,1005.95
2016-05-30T05:30:30.327Z,1005.97
2016-05-30T05:31:56.052Z,1006
2016-05-30T05:32:30.396Z,1005.98
2016-05-30T05:33:30.430Z,1005.96
2016-05-30T05:34:30.448Z,1005.98
2016-05-30T05:35:30.482Z,1005.97
2016-05-30T05:36:44.094Z,1005.97
2016-05-30T05:37:31.956Z,1005.95
2016-05-30T05:38:30.599Z,1005.93
2016-05-30T05:39:40.352Z,1005.97
2016-05-30T05:40:40.386Z,1005.97
2016-05-30T05:41:59.626Z,1005.93
2016-05-30T05:42:41.860Z,1005.98
2016-05-30T05:44:55.728Z,1005.99
2016-05-30T05:45:55.761Z,1006.01
2016-05-30T05:46:55.796Z,1006.02
2016-05-30T05:49:10.926Z,1005.97
2016-05-30T05:50:10.945Z,1005.97
2016-05-30T05:51:10.978Z,1006.01
2016-05-30T05:52:23.746Z,1006.02
2016-05-30T05:53:11.046Z,1005.95
2016-05-30T05:54:30.284Z,1005.96
2016-05-30T05:55:15.677Z,1006.02
2016-05-30T05:56:15.695Z,1006
2016-05-30T05:57:15.729Z,1006.05
2016-05-30T05:58:41.435Z,1006.07
2016-05-30T05:59:56.534Z,1006.11
2016-05-30T06:00:56.568Z,1006.12
2016-05-30T06:01:56.633Z,1006.13
2016-05-30T06:03:06.105Z,1006.15
2016-05-30T06:04:06.138Z,1006.17
2016-05-30T06:05:18.922Z,1006.11
2016-05-30T06:06:18.925Z,1006.07
2016-05-30T06:07:32.006Z,1006.12
2016-05-30T06:08:35.212Z,1006.12
2016-05-30T06:09:35.590Z,1006.13
2016-05-30T06:10:48.154Z,1006.18
2016-05-30T06:11:37.017Z,1006.2
2016-05-30T06:12:35.441Z,1006.19
2016-05-30T06:13:54.868Z,1006.22
2016-05-30T06:14:48.196Z,1006.2
2016-05-30T06:15:35.637Z,1006.25
2016-05-30T06:16:35.467Z,1006.24
2016-05-30T06:17:35.704Z,1006.23
2016-05-30T06:18:35.536Z,1006.3
2016-05-30T06:19:35.569Z,1006.3
2016-05-30T06:20:35.619Z,1006.32
2016-05-30T06:21:37.512Z,1006.29
2016-05-30T06:22:35.686Z,1006.31
2016-05-30T06:23:35.705Z,1006.37
2016-05-30T06:24:54.960Z,1006.35
2016-05-30T06:25:35.788Z,1006.32
2016-05-30T06:27:35.856Z,1006.3
2016-05-30T06:28:35.890Z,1006.31
2016-05-30T06:29:48.658Z,1006.28
2016-05-30T06:30:36.786Z,1006.29
2016-05-30T06:32:51.091Z,1006.23
2016-05-30T06:33:51.141Z,1006.21
2016-05-30T06:34:51.160Z,1006.23
2016-05-30T06:35:51.193Z,1006.26
2016-05-30T06:37:51.274Z,1006.31
2016-05-30T06:38:51.307Z,1006.33
2016-05-30T06:39:51.342Z,1006.33
2016-05-30T06:40:51.376Z,1006.37
2016-05-30T06:41:51.503Z,1006.39
2016-05-30T06:42:51.444Z,1006.44
2016-05-30T06:44:04.215Z,1006.46
2016-05-30T06:44:51.512Z,1006.55
2016-05-30T06:46:17.220Z,1006.5
2016-05-30T06:47:04.317Z,1006.52
2016-05-30T06:47:51.614Z,1006.49
2016-05-30T06:49:17.323Z,1006.54
2016-05-30T06:49:51.682Z,1006.56
2016-05-30T06:51:51.764Z,1006.51
2016-05-30T06:52:51.799Z,1006.54
2016-05-30T06:53:51.833Z,1006.49
2016-05-30T06:54:51.928Z,1006.47
2016-05-30T06:55:51.901Z,1006.48
2016-05-30T06:56:51.950Z,1006.4
2016-05-30T06:57:53.440Z,1006.42
2016-05-30T06:59:04.755Z,1006.44
2016-05-30T06:59:52.036Z,1006.43
2016-05-30T07:00:52.086Z,1006.35
2016-05-30T07:01:52.119Z,1006.36
2016-05-30T07:03:06.578Z,1006.34
2016-05-30T07:03:52.188Z,1006.29
2016-05-30T07:05:11.428Z,1006.37
2016-05-30T07:06:11.477Z,1006.33
2016-05-30T07:07:52.339Z,1006.33
2016-05-30T07:08:52.373Z,1006.29
2016-05-30T07:09:55.440Z,1006.24
2016-05-30T07:10:52.440Z,1006.25
2016-05-30T07:11:52.475Z,1006.26
2016-05-30T07:13:05.261Z,1006.3
2016-05-30T07:13:52.542Z,1006.26
2016-05-30T07:15:11.798Z,1006.3
2016-05-30T07:15:52.626Z,1006.23
2016-05-30T07:16:52.660Z,1006.29
2016-05-30T07:17:52.710Z,1006.26
2016-05-30T07:18:52.744Z,1006.27
2016-05-30T07:19:52.778Z,1006.28
2016-05-30T07:20:52.812Z,1006.33
2016-05-30T07:21:52.845Z,1006.3
2016-05-30T07:22:52.879Z,1006.27
2016-05-30T07:23:54.336Z,1006.3
2016-05-30T07:24:52.963Z,1006.34
2016-05-30T07:25:53.012Z,1006.29
2016-05-30T07:26:53.047Z,1006.32
2016-05-30T07:29:08.336Z,1006.3
2016-05-30T07:30:08.339Z,1006.28
2016-05-30T07:31:08.388Z,1006.26
2016-05-30T07:32:08.438Z,1006.22
2016-05-30T07:33:08.971Z,1006.22
2016-05-30T07:34:08.490Z,1006.21
2016-05-30T07:35:08.539Z,1006.25
2016-05-30T07:36:08.589Z,1006.2
2016-05-30T07:37:08.998Z,1006.19
2016-05-30T07:38:08.641Z,1006.17
2016-05-30T07:39:08.674Z,1006.22
2016-05-30T07:40:08.725Z,1006.13
2016-05-30T07:41:08.759Z,1006.1
2016-05-30T07:42:08.887Z,1006.1
2016-05-30T07:43:08.826Z,1006.11
2016-05-30T07:44:08.861Z,1006.08
2016-05-30T07:45:08.910Z,1006.05
2016-05-30T07:46:10.350Z,1006.13
2016-05-30T07:47:08.978Z,1006.08
2016-05-30T07:48:09.012Z,1006.08
2016-05-30T07:49:09.046Z,1005.99
2016-05-30T07:50:28.298Z,1005.98
2016-05-30T07:51:09.129Z,1006
2016-05-30T07:52:09.163Z,1005.97
2016-05-30T07:53:10.619Z,1005.94
2016-05-30T07:54:09.231Z,1005.96
2016-05-30T07:55:09.265Z,1005.95
2016-05-30T07:56:10.721Z,1006.02
2016-05-30T07:57:09.348Z,1005.97
2016-05-30T07:58:09.383Z,1005.88
2016-05-30T07:59:09.416Z,1005.89
2016-05-30T08:00:09.450Z,1005.84
2016-05-30T08:01:09.500Z,1005.82
2016-05-30T08:02:09.519Z,1005.85
2016-05-30T08:03:09.552Z,1005.83
2016-05-30T08:04:09.586Z,1005.81
2016-05-30T08:05:09.636Z,1005.79
2016-05-30T08:06:12.701Z,1005.74
2016-05-30T08:07:22.438Z,1005.72
2016-05-30T08:08:16.003Z,1005.65
2016-05-30T08:09:09.772Z,1005.58
2016-05-30T08:10:09.805Z,1005.55
2016-05-30T08:11:09.840Z,1005.51
2016-05-30T08:12:35.560Z,1005.49
2016-05-30T08:13:19.454Z,1005.5
2016-05-30T08:14:19.473Z,1005.34
2016-05-30T08:15:19.507Z,1005.29
2016-05-30T08:16:19.541Z,1005.21
2016-05-30T08:17:19.574Z,1005.31
2016-05-30T08:18:19.624Z,1005.26
2016-05-30T08:19:19.657Z,1005.2
2016-05-30T08:20:19.692Z,1005.25
2016-05-30T08:21:22.757Z,1005.24
2016-05-30T08:22:19.760Z,1005.2
2016-05-30T08:23:19.794Z,1005.26
2016-05-30T08:24:19.811Z,1005.25
2016-05-30T08:25:21.252Z,1005.27
2016-05-30T08:26:19.880Z,1005.22
2016-05-30T08:27:32.648Z,1005.19
2016-05-30T08:28:19.948Z,1005.3
2016-05-30T08:29:19.981Z,1005.28
2016-05-30T08:30:20.000Z,1005.26
2016-05-30T08:31:20.033Z,1005.34
2016-05-30T08:32:20.067Z,1005.34
2016-05-30T08:33:20.102Z,1005.38
2016-05-30T08:34:20.136Z,1005.38
2016-05-30T08:35:20.154Z,1005.36
2016-05-30T08:36:20.188Z,1005.38
2016-05-30T08:37:20.222Z,1005.33
2016-05-30T08:38:20.255Z,1005.36
2016-05-30T08:39:20.274Z,1005.37
2016-05-30T08:40:20.308Z,1005.36
2016-05-30T08:41:20.342Z,1005.37
2016-05-30T08:42:20.361Z,1005.36
2016-05-30T08:43:20.393Z,1005.44
2016-05-30T08:44:20.429Z,1005.32
2016-05-30T08:45:20.446Z,1005.31
2016-05-30T08:46:20.496Z,1005.3
2016-05-30T08:47:33.248Z,1005.31
2016-05-30T08:48:20.548Z,1005.28
2016-05-30T08:49:20.582Z,1005.3
2016-05-30T08:50:20.601Z,1005.33
2016-05-30T08:51:21.026Z,1005.27
2016-05-30T08:52:20.668Z,1005.25
2016-05-30T08:53:20.686Z,1005.23
2016-05-30T08:54:20.720Z,1005.28
2016-05-30T08:55:20.754Z,1005.32
2016-05-30T08:56:20.773Z,1005.2
2016-05-30T08:57:20.807Z,1005.24
2016-05-30T08:58:20.888Z,1005.19
2016-05-30T08:59:20.875Z,1005.23
2016-05-30T09:00:20.892Z,1005.2
2016-05-30T09:01:20.927Z,1005.2
2016-05-30T09:02:21.055Z,1005.22
2016-05-30T09:03:33.714Z,1005.16
2016-05-30T09:04:21.014Z,1005.12
2016-05-30T09:05:21.031Z,1005.06
2016-05-30T09:06:33.800Z,1005
2016-05-30T09:07:21.099Z,1005.02
2016-05-30T09:08:21.119Z,1005.06
2016-05-30T09:09:21.152Z,1005.09
2016-05-30T09:10:21.185Z,1005.09
2016-05-30T09:11:21.266Z,1005.06
2016-05-30T09:12:21.238Z,1005.11
2016-05-30T09:13:21.257Z,1005.2
2016-05-30T09:14:21.305Z,1005.23
2016-05-30T09:15:40.527Z,1005.2
2016-05-30T09:16:21.357Z,1005.18
2016-05-30T09:17:21.392Z,1005.14
2016-05-30T09:18:21.410Z,1005.12
2016-05-30T09:19:21.444Z,1005.13
2016-05-30T09:20:21.479Z,1005.14
2016-05-30T09:22:21.577Z,1005.07
2016-05-30T09:23:21.564Z,1005.04
2016-05-30T09:24:21.582Z,1005.01
2016-05-30T09:25:21.617Z,1005.17
2016-05-30T09:26:21.635Z,1005.07
2016-05-30T09:27:21.669Z,1005
2016-05-30T09:28:21.702Z,1005.09
2016-05-30T09:29:21.737Z,1005.06
2016-05-30T09:30:21.755Z,1005.06
2016-05-30T09:31:24.820Z,1005.08
2016-05-30T09:32:21.823Z,1005.08
2016-05-30T09:33:21.842Z,1005.06
2016-05-30T09:34:21.875Z,1005.09
2016-05-30T09:35:21.909Z,1005.05
2016-05-30T09:36:21.927Z,1005.16
2016-05-30T09:37:21.962Z,1005.08
2016-05-30T09:38:21.980Z,1005.09
2016-05-30T09:39:22.013Z,1005.11
2016-05-30T09:40:22.047Z,1005.05
2016-05-30T09:41:22.066Z,1005.05
2016-05-30T09:42:22.099Z,1005.04
2016-05-30T09:43:47.806Z,1005.08
2016-05-30T09:44:22.152Z,1004.98
2016-05-30T09:45:22.201Z,1005.03
2016-05-30T09:46:22.221Z,1005.04
2016-05-30T09:47:22.238Z,1005.05
2016-05-30T09:48:22.271Z,1005.01
2016-05-30T09:49:22.307Z,1005.02
2016-05-30T09:50:22.340Z,1005.03
2016-05-30T09:51:22.374Z,1005.05
2016-05-30T09:52:35.157Z,1005.01
2016-05-30T09:53:22.426Z,1004.92
2016-05-30T09:54:22.444Z,1004.98
2016-05-30T09:55:22.478Z,1004.95
2016-05-30T09:56:41.715Z,1004.94
2016-05-30T09:57:22.531Z,1004.99
2016-05-30T09:58:22.564Z,1004.88
2016-05-30T09:59:32.083Z,1004.87
2016-05-30T10:00:32.117Z,1004.76
2016-05-30T10:01:32.136Z,1004.79
2016-05-30T10:02:32.169Z,1004.77
2016-05-30T10:03:32.203Z,1004.78
2016-05-30T10:04:51.425Z,1004.75
2016-05-30T10:05:32.256Z,1004.76
2016-05-30T10:06:32.289Z,1004.8
2016-05-30T10:07:32.308Z,1004.81
2016-05-30T10:08:32.342Z,1004.88
2016-05-30T10:09:33.783Z,1004.9
2016-05-30T10:10:32.410Z,1004.85
2016-05-30T10:11:32.428Z,1004.89
2016-05-30T10:12:42.072Z,1004.87
2016-05-30T10:13:42.105Z,1004.87
2016-05-30T10:14:42.139Z,1004.94
2016-05-30T10:15:42.174Z,1004.97
2016-05-30T10:16:42.191Z,1004.92
2016-05-30T10:17:42.225Z,1004.99
2016-05-30T10:18:42.259Z,1004.95
2016-05-30T10:19:42.277Z,1004.99
2016-05-30T10:21:01.515Z,1004.92
2016-05-30T10:21:42.329Z,1004.94
2016-05-30T10:22:42.363Z,1004.97
2016-05-30T10:23:42.398Z,1004.99
2016-05-30T10:24:42.432Z,1005.01
2016-05-30T10:25:55.184Z,1005.01
2016-05-30T10:26:43.890Z,1005.04
2016-05-30T10:27:42.502Z,1005.03
2016-05-30T10:28:42.536Z,1004.89
2016-05-30T10:29:42.586Z,1004.9
2016-05-30T10:30:42.604Z,1004.9
2016-05-30T10:31:42.622Z,1004.87
2016-05-30T10:32:42.656Z,1004.87
2016-05-30T10:33:42.690Z,1004.89
2016-05-30T10:34:42.724Z,1004.86
2016-05-30T10:35:42.758Z,1004.8
2016-05-30T10:36:42.792Z,1004.78
2016-05-30T10:37:42.795Z,1004.89
2016-05-30T10:38:42.844Z,1004.85
2016-05-30T10:39:42.863Z,1004.83
2016-05-30T10:40:45.927Z,1004.87
2016-05-30T10:41:42.915Z,1004.88
2016-05-30T10:42:42.949Z,1004.93
2016-05-30T10:43:42.967Z,1004.87
2016-05-30T10:44:43.017Z,1004.87
2016-05-30T10:45:46.066Z,1004.84
2016-05-30T10:47:02.271Z,1004.89
2016-05-30T10:47:43.088Z,1004.89
2016-05-30T10:48:43.121Z,1004.88
2016-05-30T10:49:43.154Z,1004.96
2016-05-30T10:50:43.188Z,1004.89
2016-05-30T10:51:43.739Z,1004.97
2016-05-30T10:52:43.288Z,1004.95
2016-05-30T10:53:43.291Z,1004.9
2016-05-30T10:54:43.310Z,1004.89
2016-05-30T10:55:56.062Z,1004.89
2016-05-30T10:56:56.096Z,1004.89
2016-05-30T10:57:43.396Z,1004.83
2016-05-30T10:59:02.664Z,1004.85
2016-05-30T10:59:43.463Z,1004.83
2016-05-30T11:00:43.481Z,1004.89
2016-05-30T11:01:43.609Z,1004.94
2016-05-30T11:02:43.550Z,1004.99
2016-05-30T11:03:43.583Z,1004.93
2016-05-30T11:04:43.601Z,1004.92
2016-05-30T11:05:43.620Z,1004.97
2016-05-30T11:06:43.669Z,1004.99
2016-05-30T11:07:44.063Z,1005.05
2016-05-30T11:08:43.722Z,1005
2016-05-30T11:09:43.755Z,1005.06
2016-05-30T11:10:43.774Z,1005.03
2016-05-30T11:11:43.824Z,1005.08
2016-05-30T11:12:43.858Z,1005.11
2016-05-30T11:13:43.875Z,1005.05
2016-05-30T11:14:43.910Z,1005.08
2016-05-30T11:15:43.928Z,1005.02
2016-05-30T11:16:43.962Z,1005.02
2016-05-30T11:17:43.996Z,1005.01
2016-05-30T11:18:47.061Z,1005.03
2016-05-30T11:19:44.064Z,1004.99
2016-05-30T11:20:44.082Z,1005.05
2016-05-30T11:21:44.116Z,1005.03
2016-05-30T11:22:44.150Z,1005.04
2016-05-30T11:23:44.185Z,1005.02
2016-05-30T11:24:44.218Z,1005.04
2016-05-30T11:25:44.252Z,1005.01
2016-05-30T11:26:44.270Z,1005.01
2016-05-30T11:27:44.304Z,1005
2016-05-30T11:28:44.337Z,1004.97
2016-05-30T11:29:44.373Z,1004.93
2016-05-30T11:30:44.390Z,1004.98
2016-05-30T11:31:44.440Z,1005
2016-05-30T11:32:44.458Z,1004.95
2016-05-30T11:33:57.226Z,1004.97
2016-05-30T11:34:45.932Z,1004.96
2016-05-30T11:35:44.545Z,1005.02
2016-05-30T11:36:44.578Z,1004.88
2016-05-30T11:37:44.612Z,1004.86
2016-05-30T11:38:44.646Z,1004.9
2016-05-30T11:39:44.681Z,1004.93
2016-05-30T11:40:44.698Z,1004.88
2016-05-30T11:41:46.154Z,1004.94
2016-05-30T11:42:44.766Z,1004.88
2016-05-30T11:43:44.800Z,1004.91
2016-05-30T11:44:44.819Z,1004.84
2016-05-30T11:45:46.289Z,1004.9
2016-05-30T11:46:44.922Z,1004.99
2016-05-30T11:47:44.977Z,1004.84
2016-05-30T11:48:45.015Z,1004.9
2016-05-30T11:49:45.068Z,1004.89
2016-05-30T11:50:57.864Z,1004.86
2016-05-30T11:51:45.452Z,1004.83
2016-05-30T11:52:45.493Z,1004.74
2016-05-30T11:53:45.222Z,1004.78
2016-05-30T11:54:45.263Z,1004.82
2016-05-30T11:55:58.035Z,1004.78
2016-05-30T11:56:45.337Z,1004.73
2016-05-30T11:57:45.374Z,1004.77
2016-05-30T11:58:45.457Z,1004.9
2016-05-30T11:59:58.166Z,1004.89
2016-05-30T12:00:45.483Z,1004.83
2016-05-30T12:01:45.502Z,1004.85
2016-05-30T12:02:45.522Z,1004.88
2016-05-30T12:03:45.557Z,1004.83
2016-05-30T12:04:45.591Z,1004.84
2016-05-30T12:05:45.627Z,1004.93
2016-05-30T12:06:45.661Z,1004.86
2016-05-30T12:07:45.679Z,1004.84
2016-05-30T12:09:04.932Z,1004.85
2016-05-30T12:09:45.748Z,1004.69
2016-05-30T12:10:45.782Z,1004.81
2016-05-30T12:11:45.816Z,1004.77
2016-05-30T12:12:45.881Z,1004.76
2016-05-30T12:13:45.884Z,1004.79
2016-05-30T12:15:05.105Z,1004.75
2016-05-30T12:15:45.936Z,1004.71
2016-05-30T12:16:45.970Z,1004.76
2016-05-30T12:17:46.004Z,1004.86
2016-05-30T12:18:46.039Z,1004.79
2016-05-30T12:19:46.056Z,1004.88
2016-05-30T12:20:46.090Z,1004.88
2016-05-30T12:21:46.140Z,1004.84
2016-05-30T12:22:46.252Z,1004.81
2016-05-30T12:23:46.177Z,1004.9
2016-05-30T12:24:46.211Z,1004.93
2016-05-30T12:25:46.244Z,1004.87
2016-05-30T12:26:46.278Z,1004.94